createdAt,value
2018-10-03T00:00:55.483Z,9.60
2018-10-03T00:01:55.470Z,12.20
2018-10-03T00:02:55.403Z,9.70
2018-10-03T00:03:55.372Z,10.90
2018-10-03T00:04:55.334Z,9.70
2018-10-03T00:05:55.294Z,11.10
2018-10-03T00:06:55.262Z,9.60
2018-10-03T00:07:55.222Z,9.60
2018-10-03T00:08:55.187Z,8.80
2018-10-03T00:09:55.153Z,9.90
2018-10-03T00:10:55.113Z,10.20
2018-10-03T00:11:55.075Z,10.90
2018-10-03T00:12:55.042Z,8.20
2018-10-03T00:13:55.017Z,9.40
2018-10-03T00:14:54.960Z,11.40
2018-10-03T00:15:54.926Z,7.80
2018-10-03T00:16:54.890Z,9.00
2018-10-03T00:17:54.849Z,10.60
2018-10-03T00:18:54.818Z,12.50
2018-10-03T00:19:54.783Z,8.40
2018-10-03T00:20:54.744Z,8.60
2018-10-03T00:21:54.708Z,8.10
2018-10-03T00:22:54.664Z,9.40
2018-10-03T00:23:54.631Z,9.70
2018-10-03T00:24:54.599Z,10.10
2018-10-03T00:25:54.553Z,8.10
2018-10-03T00:26:54.523Z,9.20
2018-10-03T00:27:54.493Z,10.40
2018-10-03T00:28:54.445Z,8.40
2018-10-03T00:29:54.407Z,9.50
2018-10-03T00:30:54.375Z,7.30
2018-10-03T00:31:54.339Z,8.80
2018-10-03T00:32:54.300Z,9.90
2018-10-03T00:33:54.264Z,10.30
2018-10-03T00:34:54.225Z,10.70
2018-10-03T00:35:54.190Z,7.90
2018-10-03T00:36:54.150Z,8.00
2018-10-03T00:37:54.111Z,7.30
2018-10-03T00:38:54.083Z,10.50
2018-10-03T00:39:54.044Z,9.30
2018-10-03T00:40:54.003Z,8.90
2018-10-03T00:41:53.971Z,7.90
2018-10-03T00:42:53.927Z,8.40
2018-10-03T00:43:53.892Z,9.20
2018-10-03T00:44:53.859Z,7.10
2018-10-03T00:45:53.821Z,9.70
2018-10-03T00:46:53.780Z,10.40
2018-10-03T00:47:53.743Z,7.00
2018-10-03T00:48:53.722Z,11.00
2018-10-03T00:49:53.667Z,9.80
2018-10-03T00:50:53.636Z,9.10
2018-10-03T00:51:53.615Z,8.70
2018-10-03T00:52:53.561Z,10.50
2018-10-03T00:53:53.525Z,9.40
2018-10-03T00:54:53.483Z,10.20
2018-10-03T00:55:53.465Z,9.90
2018-10-03T00:56:53.411Z,12.80
2018-10-03T00:57:53.370Z,8.30
2018-10-03T00:58:53.343Z,9.70
2018-10-03T00:59:53.301Z,8.90
2018-10-03T01:00:53.265Z,7.90
2018-10-03T01:01:53.225Z,8.90
2018-10-03T01:02:53.193Z,7.80
2018-10-03T01:03:53.157Z,7.90
2018-10-03T01:04:53.117Z,7.80
2018-10-03T01:05:53.081Z,10.50
2018-10-03T01:06:53.039Z,9.60
2018-10-03T01:07:53.008Z,9.60
2018-10-03T01:08:52.968Z,9.40
2018-10-03T01:09:52.928Z,10.90
2018-10-03T01:10:52.898Z,8.20
2018-10-03T01:11:52.858Z,8.90
2018-10-03T01:12:52.822Z,8.20
2018-10-03T01:13:52.789Z,7.90
2018-10-03T01:14:52.746Z,11.50
2018-10-03T01:15:52.710Z,9.60
2018-10-03T01:16:52.674Z,7.40
2018-10-03T01:17:52.639Z,9.40
2018-10-03T01:18:52.595Z,10.90
2018-10-03T01:19:52.561Z,7.20
2018-10-03T01:20:52.523Z,8.80
2018-10-03T01:21:52.484Z,11.00
2018-10-03T01:22:52.456Z,12.90
2018-10-03T01:23:52.414Z,7.30
2018-10-03T01:24:52.384Z,8.50
2018-10-03T01:25:52.342Z,10.70
2018-10-03T01:26:52.299Z,8.30
2018-10-03T01:27:52.264Z,8.30
2018-10-03T01:28:52.230Z,10.40
2018-10-03T01:29:52.191Z,9.10
2018-10-03T01:30:52.156Z,9.30
2018-10-03T01:31:52.118Z,7.60
2018-10-03T01:32:52.080Z,9.80
2018-10-03T01:33:52.040Z,9.80
2018-10-03T01:34:52.012Z,9.10
2018-10-03T01:35:51.971Z,10.50
2018-10-03T01:36:51.935Z,11.40
2018-10-03T01:37:51.897Z,10.30
2018-10-03T01:38:51.855Z,10.90
2018-10-03T01:39:51.845Z,12.00
2018-10-03T01:40:51.780Z,8.70
2018-10-03T01:41:51.745Z,7.20
2018-10-03T01:42:51.711Z,8.90
2018-10-03T01:43:51.680Z,10.70
2018-10-03T01:44:51.638Z,9.20
2018-10-03T01:45:51.599Z,8.30
2018-10-03T01:46:51.561Z,9.70
2018-10-03T01:47:51.521Z,9.30
2018-10-03T01:48:51.491Z,9.70
2018-10-03T01:49:51.450Z,9.00
2018-10-03T01:50:51.418Z,8.90
2018-10-03T01:51:51.372Z,8.60
2018-10-03T01:52:51.339Z,9.10
2018-10-03T01:53:51.300Z,9.10
2018-10-03T01:54:51.279Z,7.70
2018-10-03T01:55:51.238Z,8.60
2018-10-03T01:56:51.193Z,11.40
2018-10-03T01:57:51.153Z,10.60
2018-10-03T01:58:51.115Z,7.90
2018-10-03T01:59:51.078Z,9.50
2018-10-03T02:00:51.038Z,11.30
2018-10-03T02:01:51.004Z,11.70
2018-10-03T02:02:50.969Z,10.10
2018-10-03T02:03:50.933Z,10.40
2018-10-03T02:04:50.891Z,9.30
2018-10-03T02:05:50.855Z,9.80
2018-10-03T02:06:50.823Z,9.40
2018-10-03T02:07:50.785Z,10.60
2018-10-03T02:08:50.748Z,8.70
2018-10-03T02:09:50.708Z,9.00
2018-10-03T02:10:50.669Z,9.30
2018-10-03T02:11:50.631Z,10.20
2018-10-03T02:12:50.596Z,9.00
2018-10-03T02:13:50.558Z,10.10
2018-10-03T02:14:50.565Z,10.70
2018-10-03T02:15:50.492Z,10.90
2018-10-03T02:16:50.454Z,9.10
2018-10-03T02:17:50.412Z,12.20
2018-10-03T02:18:50.378Z,12.10
2018-10-03T02:19:50.340Z,11.10
2018-10-03T02:20:50.316Z,10.30
2018-10-03T02:21:50.264Z,7.20
2018-10-03T02:22:50.223Z,9.60
2018-10-03T02:23:50.185Z,12.80
2018-10-03T02:24:50.148Z,10.10
2018-10-03T02:25:50.115Z,10.30
2018-10-03T02:26:50.087Z,10.70
2018-10-03T02:27:50.046Z,9.80
2018-10-03T02:28:50.007Z,11.00
2018-10-03T02:29:49.966Z,11.40
2018-10-03T02:30:49.942Z,7.70
2018-10-03T02:31:49.889Z,10.40
2018-10-03T02:32:49.852Z,10.10
2018-10-03T02:33:49.816Z,10.40
2018-10-03T02:34:49.785Z,8.70
2018-10-03T02:35:49.745Z,12.20
2018-10-03T02:36:49.705Z,11.70
2018-10-03T02:37:49.673Z,10.70
2018-10-03T02:38:49.632Z,10.50
2018-10-03T02:39:49.602Z,10.00
2018-10-03T02:40:49.586Z,11.80
2018-10-03T02:41:49.526Z,10.80
2018-10-03T02:42:49.481Z,13.10
2018-10-03T02:43:49.442Z,10.10
2018-10-03T02:44:49.413Z,12.40
2018-10-03T02:45:49.373Z,10.10
2018-10-03T02:46:49.338Z,10.30
2018-10-03T02:47:49.302Z,11.70
2018-10-03T02:48:49.264Z,12.80
2018-10-03T02:49:49.223Z,11.60
2018-10-03T02:50:49.185Z,10.40
2018-10-03T02:51:49.145Z,9.60
2018-10-03T02:52:49.115Z,9.40
2018-10-03T02:53:49.075Z,10.80
2018-10-03T02:54:49.043Z,10.10
2018-10-03T02:55:48.997Z,11.40
2018-10-03T02:56:48.960Z,11.00
2018-10-03T02:57:48.924Z,12.80
2018-10-03T02:58:48.889Z,11.30
2018-10-03T02:59:48.859Z,12.20
2018-10-03T03:00:48.832Z,9.10
2018-10-03T03:01:48.862Z,10.40
2018-10-03T03:02:48.740Z,8.90
2018-10-03T03:03:48.700Z,10.70
2018-10-03T03:04:48.664Z,13.20
2018-10-03T03:05:48.629Z,10.90
2018-10-03T03:06:48.592Z,12.20
2018-10-03T03:07:48.565Z,11.80
2018-10-03T03:08:48.529Z,12.60
2018-10-03T03:09:48.477Z,12.80
2018-10-03T03:10:48.450Z,12.30
2018-10-03T03:11:48.409Z,10.60
2018-10-03T03:12:48.371Z,12.40
2018-10-03T03:13:48.334Z,9.60
2018-10-03T03:14:48.293Z,10.10
2018-10-03T03:15:48.254Z,11.70
2018-10-03T03:16:48.216Z,13.90
2018-10-03T03:17:48.184Z,14.50
2018-10-03T03:18:48.147Z,10.20
2018-10-03T03:19:48.110Z,12.60
2018-10-03T03:20:48.077Z,10.40
2018-10-03T03:21:48.037Z,9.80
2018-10-03T03:22:47.994Z,12.90
2018-10-03T03:23:47.955Z,12.50
2018-10-03T03:24:47.944Z,12.00
2018-10-03T03:25:47.903Z,12.30
2018-10-03T03:26:47.844Z,10.60
2018-10-03T03:27:47.806Z,11.60
2018-10-03T03:28:47.770Z,16.70
2018-10-03T03:29:47.734Z,15.10
2018-10-03T03:30:47.698Z,13.50
2018-10-03T03:31:47.669Z,17.60
2018-10-03T03:32:47.642Z,13.60
2018-10-03T03:33:47.588Z,16.70
2018-10-03T03:34:47.552Z,11.60
2018-10-03T03:35:47.510Z,13.80
2018-10-03T03:36:47.477Z,16.00
2018-10-03T03:37:47.434Z,15.60
2018-10-03T03:38:47.399Z,17.50
2018-10-03T03:39:47.364Z,17.70
2018-10-03T03:40:47.325Z,18.80
2018-10-03T03:41:47.287Z,14.60
2018-10-03T03:42:47.251Z,16.00
2018-10-03T03:43:47.216Z,13.10
2018-10-03T03:44:47.179Z,14.80
2018-10-03T03:45:47.139Z,12.90
2018-10-03T03:46:47.104Z,13.40
2018-10-03T03:47:47.060Z,20.30
2018-10-03T03:48:47.026Z,19.20
2018-10-03T03:49:46.987Z,17.20
2018-10-03T03:50:46.953Z,19.00
2018-10-03T03:51:46.923Z,14.90
2018-10-03T03:52:46.890Z,17.70
2018-10-03T03:53:46.846Z,14.90
2018-10-03T04:06:53.789Z,12.50
2018-10-03T04:07:53.723Z,18.40
2018-10-03T04:08:53.667Z,17.80
2018-10-03T04:09:53.619Z,22.30
2018-10-03T04:10:53.576Z,16.90
2018-10-03T04:11:53.531Z,19.10
2018-10-03T04:12:53.491Z,17.90
2018-10-03T04:13:53.454Z,18.80
2018-10-03T04:14:53.413Z,22.90
2018-10-03T04:15:53.378Z,23.30
2018-10-03T04:16:53.336Z,16.40
2018-10-03T04:17:53.298Z,16.70
2018-10-03T04:18:53.263Z,17.60
2018-10-03T04:19:53.215Z,18.80
2018-10-03T04:20:53.178Z,18.50
2018-10-03T04:21:53.142Z,17.40
2018-10-03T04:22:53.107Z,21.30
2018-10-03T04:23:53.062Z,21.40
2018-10-03T04:24:53.032Z,17.90
2018-10-03T04:25:52.988Z,22.70
2018-10-03T04:26:52.946Z,26.00
2018-10-03T04:27:52.915Z,16.30
2018-10-03T04:28:52.875Z,20.90
2018-10-03T04:29:52.839Z,23.20
2018-10-03T04:30:52.800Z,21.30
2018-10-03T04:31:52.769Z,17.80
2018-10-03T04:32:52.720Z,19.70
2018-10-03T04:33:52.684Z,17.20
2018-10-03T04:34:52.647Z,19.40
2018-10-03T04:35:52.612Z,19.10
2018-10-03T04:36:52.576Z,19.90
2018-10-03T04:37:52.533Z,19.20
2018-10-03T04:38:52.493Z,22.60
2018-10-03T04:39:52.460Z,25.30
2018-10-03T04:40:52.420Z,22.80
2018-10-03T04:41:52.385Z,21.80
2018-10-03T04:42:52.346Z,18.10
2018-10-03T04:43:52.304Z,21.20
2018-10-03T04:44:52.269Z,25.60
2018-10-03T04:45:52.229Z,24.80
2018-10-03T04:46:52.190Z,18.00
2018-10-03T04:47:52.156Z,20.30
2018-10-03T04:48:52.150Z,24.40
2018-10-03T04:49:52.080Z,21.40
2018-10-03T04:50:52.043Z,21.80
2018-10-03T04:51:51.999Z,17.60
2018-10-03T04:52:51.966Z,18.20
2018-10-03T04:53:51.929Z,25.20
2018-10-03T04:54:51.893Z,17.70
2018-10-03T04:55:51.848Z,18.50
2018-10-03T04:56:51.817Z,20.10
2018-10-03T04:57:51.777Z,19.30
2018-10-03T04:58:51.752Z,19.30
2018-10-03T04:59:51.704Z,20.80
2018-10-03T05:00:51.667Z,22.60
2018-10-03T05:01:51.640Z,21.30
2018-10-03T05:02:51.594Z,21.20
2018-10-03T05:03:51.554Z,18.60
2018-10-03T05:04:51.510Z,20.70
2018-10-03T05:05:51.473Z,21.70
2018-10-03T05:06:51.432Z,20.50
2018-10-03T05:07:51.401Z,22.10
2018-10-03T05:08:51.362Z,19.50
2018-10-03T05:09:51.329Z,21.00
2018-10-03T05:10:51.282Z,20.10
2018-10-03T05:11:51.250Z,19.60
2018-10-03T05:12:51.212Z,24.20
2018-10-03T05:13:51.194Z,19.90
2018-10-03T05:14:51.135Z,23.20
2018-10-03T05:15:51.092Z,15.70
2018-10-03T05:16:51.055Z,17.30
2018-10-03T05:17:51.027Z,17.70
2018-10-03T05:18:50.983Z,21.20
2018-10-03T05:19:50.948Z,16.00
2018-10-03T05:20:50.907Z,22.30
2018-10-03T05:21:50.874Z,21.00
2018-10-03T05:22:50.837Z,19.40
2018-10-03T05:23:50.801Z,18.80
2018-10-03T05:24:50.755Z,16.70
2018-10-03T05:25:50.736Z,16.30
2018-10-03T05:26:50.683Z,22.20
2018-10-03T05:27:50.706Z,16.90
2018-10-03T05:28:50.609Z,19.20
2018-10-03T05:29:50.567Z,20.00
2018-10-03T05:30:50.524Z,23.90
2018-10-03T05:31:50.497Z,20.40
2018-10-03T05:32:50.455Z,21.00
2018-10-03T05:33:50.417Z,20.70
2018-10-03T05:34:50.381Z,18.40
2018-10-03T05:35:50.337Z,18.90
2018-10-03T05:36:50.314Z,17.00
2018-10-03T05:37:50.263Z,20.30
2018-10-03T05:38:50.224Z,18.90
2018-10-03T05:39:50.201Z,18.80
2018-10-03T05:40:50.165Z,21.70
2018-10-03T05:41:50.113Z,23.60
2018-10-03T05:42:50.080Z,21.90
2018-10-03T05:43:50.042Z,17.40
2018-10-03T05:44:50.002Z,21.10
2018-10-03T05:45:49.965Z,18.10
2018-10-03T05:46:49.931Z,21.00
2018-10-03T05:47:49.889Z,21.40
2018-10-03T05:48:49.864Z,23.30
2018-10-03T05:49:49.811Z,24.40
2018-10-03T05:50:49.776Z,14.80
2018-10-03T05:51:49.739Z,19.90
2018-10-03T05:52:49.700Z,20.30
2018-10-03T05:53:49.667Z,23.80
2018-10-03T05:54:49.657Z,20.70
2018-10-03T05:55:49.583Z,26.50
2018-10-03T05:56:49.547Z,19.40
2018-10-03T05:57:49.532Z,22.30
2018-10-03T05:58:49.478Z,22.30
2018-10-03T05:59:49.445Z,18.10
2018-10-03T06:00:49.395Z,22.40
2018-10-03T06:01:49.370Z,20.90
2018-10-03T06:02:49.329Z,18.00
2018-10-03T06:03:49.288Z,20.30
2018-10-03T06:04:49.250Z,20.70
2018-10-03T06:05:49.213Z,20.40
2018-10-03T06:06:49.175Z,24.90
2018-10-03T06:07:49.129Z,26.10
2018-10-03T06:08:49.099Z,18.10
2018-10-03T06:09:49.058Z,25.90
2018-10-03T06:10:49.015Z,20.50
2018-10-03T06:11:48.992Z,24.20
2018-10-03T06:12:48.950Z,25.40
2018-10-03T06:13:48.907Z,22.00
2018-10-03T06:14:48.863Z,24.30
2018-10-03T06:15:48.832Z,23.60
2018-10-03T06:16:48.796Z,22.40
2018-10-03T06:17:48.756Z,19.00
2018-10-03T06:18:48.735Z,15.50
2018-10-03T06:19:48.677Z,15.70
2018-10-03T06:20:48.641Z,20.50
2018-10-03T06:21:48.601Z,20.90
2018-10-03T06:22:48.581Z,25.80
2018-10-03T06:23:48.534Z,20.70
2018-10-03T06:24:48.493Z,22.50
2018-10-03T06:25:48.453Z,20.70
2018-10-03T06:26:48.420Z,26.10
2018-10-03T06:27:48.424Z,21.20
2018-10-03T06:28:48.337Z,18.30
2018-10-03T06:29:48.302Z,19.70
2018-10-03T06:30:48.286Z,22.80
2018-10-03T06:31:48.236Z,20.70
2018-10-03T06:32:48.187Z,22.80
2018-10-03T06:33:48.149Z,27.80
2018-10-03T06:34:48.480Z,28.60
2018-10-03T06:35:48.077Z,24.40
2018-10-03T06:36:48.068Z,21.90
2018-10-03T06:37:47.998Z,23.70
2018-10-03T06:38:47.958Z,27.30
2018-10-03T06:39:47.942Z,20.10
2018-10-03T06:40:47.891Z,24.40
2018-10-03T06:41:47.854Z,27.50
2018-10-03T06:42:47.814Z,23.20
2018-10-03T06:43:47.770Z,17.90
2018-10-03T06:44:47.740Z,19.10
2018-10-03T06:45:47.754Z,21.60
2018-10-03T06:46:47.666Z,21.80
2018-10-03T06:47:47.640Z,21.20
2018-10-03T06:48:47.584Z,23.40
2018-10-03T06:49:47.550Z,25.90
2018-10-03T06:50:47.507Z,21.90
2018-10-03T06:51:47.476Z,21.50
2018-10-03T06:52:47.441Z,25.20
2018-10-03T06:53:47.399Z,23.30
2018-10-03T06:54:47.364Z,21.80
2018-10-03T06:55:47.319Z,21.50
2018-10-03T06:56:47.283Z,28.90
2018-10-03T06:57:47.249Z,20.60
2018-10-03T06:58:47.211Z,22.70
2018-10-03T06:59:47.185Z,25.50
2018-10-03T07:00:47.136Z,22.00
2018-10-03T07:01:47.096Z,22.70
2018-10-03T07:02:47.062Z,24.10
2018-10-03T07:03:47.027Z,27.90
2018-10-03T07:04:46.985Z,27.00
2018-10-03T07:05:46.986Z,26.80
2018-10-03T07:06:46.916Z,31.50
2018-10-03T07:07:46.868Z,22.00
2018-10-03T07:08:46.832Z,18.90
2018-10-03T07:09:46.797Z,24.90
2018-10-03T07:10:46.757Z,26.20
2018-10-03T07:11:46.726Z,25.80
2018-10-03T07:12:46.684Z,24.70
2018-10-03T07:13:46.647Z,21.30
2018-10-03T07:14:46.609Z,22.50
2018-10-03T07:15:46.568Z,19.90
2018-10-03T07:16:46.531Z,23.00
2018-10-03T07:17:46.496Z,24.20
2018-10-03T07:18:46.460Z,21.10
2018-10-03T07:19:46.441Z,27.30
2018-10-03T07:20:46.380Z,23.30
2018-10-03T07:21:46.343Z,18.40
2018-10-03T07:22:46.303Z,20.20
2018-10-03T07:23:46.274Z,19.90
2018-10-03T07:24:46.232Z,25.20
2018-10-03T07:25:46.196Z,20.30
2018-10-03T07:26:46.158Z,23.70
2018-10-03T07:27:46.120Z,22.40
2018-10-03T07:28:46.080Z,29.10
2018-10-03T07:29:46.043Z,22.10
2018-10-03T07:30:46.077Z,19.30
2018-10-03T07:31:45.987Z,24.80
2018-10-03T07:32:46.036Z,25.50
2018-10-03T07:33:45.893Z,20.20
2018-10-03T07:34:45.894Z,21.80
2018-10-03T07:35:45.823Z,20.40
2018-10-03T07:36:45.783Z,23.10
2018-10-03T07:37:45.747Z,30.60
2018-10-03T07:38:45.712Z,25.00
2018-10-03T07:39:45.668Z,18.60
2018-10-03T07:40:45.633Z,22.50
2018-10-03T07:41:45.609Z,23.60
2018-10-03T07:42:45.554Z,25.50
2018-10-03T07:43:45.524Z,21.60
2018-10-03T07:44:45.491Z,29.00
2018-10-03T07:45:45.459Z,21.70
2018-10-03T07:46:45.412Z,16.00
2018-10-03T07:47:45.368Z,22.40
2018-10-03T07:48:45.351Z,20.30
2018-10-03T07:49:45.306Z,23.60
2018-10-03T07:50:45.263Z,18.80
2018-10-03T07:51:45.232Z,21.60
2018-10-03T07:52:45.185Z,29.80
2018-10-03T07:53:45.149Z,26.30
2018-10-03T07:54:45.107Z,25.00
2018-10-03T07:55:45.079Z,24.90
2018-10-03T07:56:45.042Z,21.90
2018-10-03T07:57:45.000Z,21.60
2018-10-03T07:58:44.974Z,21.70
2018-10-03T07:59:44.941Z,20.10
2018-10-03T08:00:44.887Z,25.40
2018-10-03T08:01:44.858Z,22.80
2018-10-03T08:02:44.816Z,18.70
2018-10-03T08:03:44.781Z,20.10
2018-10-03T08:04:44.742Z,21.90
2018-10-03T08:05:44.705Z,23.10
2018-10-03T08:06:44.668Z,18.10
2018-10-03T08:07:44.638Z,21.80
2018-10-03T08:08:44.598Z,24.10
2018-10-03T08:09:44.626Z,14.30
2018-10-03T08:10:44.521Z,25.80
2018-10-03T08:11:44.481Z,19.90
2018-10-03T08:12:44.449Z,18.10
2018-10-03T08:13:44.411Z,18.00
2018-10-03T08:14:44.367Z,18.20
2018-10-03T08:15:44.335Z,22.20
2018-10-03T08:16:44.299Z,21.70
2018-10-03T08:17:44.269Z,22.50
2018-10-03T08:18:44.224Z,21.50
2018-10-03T08:19:44.187Z,18.30
2018-10-03T08:20:44.151Z,23.20
2018-10-03T08:21:44.114Z,23.10
2018-10-03T08:22:44.132Z,16.60
2018-10-03T08:23:44.037Z,19.30
2018-10-03T08:24:44.088Z,21.30
2018-10-03T08:25:43.965Z,18.70
2018-10-03T08:26:43.927Z,21.60
2018-10-03T08:27:43.930Z,20.20
2018-10-03T08:28:43.871Z,18.00
2018-10-03T08:29:43.820Z,18.70
2018-10-03T08:30:43.785Z,18.10
2018-10-03T08:31:43.742Z,18.40
2018-10-03T08:32:43.790Z,18.80
2018-10-03T08:33:43.671Z,18.10
2018-10-03T08:34:43.643Z,24.00
2018-10-03T08:35:43.607Z,22.50
2018-10-03T08:36:43.567Z,25.40
2018-10-03T08:37:43.524Z,25.70
2018-10-03T08:38:43.538Z,24.60
2018-10-03T08:39:43.460Z,24.50
2018-10-03T08:40:43.415Z,22.90
2018-10-03T08:41:43.379Z,17.30
2018-10-03T08:42:43.346Z,17.00
2018-10-03T08:43:43.323Z,20.50
2018-10-03T08:44:43.270Z,19.20
2018-10-03T08:45:43.256Z,20.90
2018-10-03T08:46:43.196Z,20.00
2018-10-03T08:47:43.161Z,21.40
2018-10-03T08:48:43.121Z,19.80
2018-10-03T08:49:43.090Z,18.40
2018-10-03T08:50:43.051Z,23.10
2018-10-03T08:51:43.016Z,18.60
2018-10-03T08:52:43.000Z,20.20
2018-10-03T08:53:42.941Z,21.00
2018-10-03T08:54:42.905Z,19.30
2018-10-03T08:55:42.860Z,27.40
2018-10-03T08:56:42.829Z,19.20
2018-10-03T08:57:42.807Z,17.90
2018-10-03T08:58:42.751Z,16.70
2018-10-03T08:59:42.721Z,15.00
2018-10-03T09:00:42.682Z,16.20
2018-10-03T09:01:42.647Z,19.70
2018-10-03T09:02:42.615Z,15.40
2018-10-03T09:03:42.584Z,20.50
2018-10-03T09:04:42.532Z,21.00
2018-10-03T09:05:42.495Z,16.80
2018-10-03T09:06:42.458Z,21.00
2018-10-03T09:07:42.425Z,16.80
2018-10-03T09:08:42.391Z,18.40
2018-10-03T09:09:42.369Z,15.90
2018-10-03T09:10:42.314Z,20.20
2018-10-03T09:11:42.342Z,15.40
2018-10-03T09:12:42.243Z,26.20
2018-10-03T09:13:42.208Z,18.80
2018-10-03T09:14:42.176Z,20.20
2018-10-03T09:15:42.128Z,15.90
2018-10-03T09:16:42.101Z,22.20
2018-10-03T09:17:42.060Z,19.70
2018-10-03T09:18:42.018Z,18.70
2018-10-03T09:19:41.991Z,21.30
2018-10-03T09:20:41.950Z,18.10
2018-10-03T09:21:41.919Z,23.60
2018-10-03T09:22:41.884Z,20.70
2018-10-03T09:23:41.841Z,21.10
2018-10-03T09:24:41.800Z,23.80
2018-10-03T09:25:41.767Z,21.90
2018-10-03T09:26:41.732Z,21.70
2018-10-03T09:27:41.691Z,21.20
2018-10-03T09:28:41.659Z,20.60
2018-10-03T09:29:41.627Z,20.40
2018-10-03T09:30:41.592Z,17.40
2018-10-03T09:31:41.553Z,23.20
2018-10-03T09:32:41.512Z,16.10
2018-10-03T09:33:41.475Z,21.20
2018-10-03T09:34:41.440Z,19.20
2018-10-03T09:35:41.397Z,19.60
2018-10-03T09:36:41.367Z,17.80
2018-10-03T09:37:41.332Z,19.60
2018-10-03T09:38:41.290Z,20.90
2018-10-03T09:39:41.281Z,21.30
2018-10-03T09:40:41.217Z,17.50
2018-10-03T09:41:41.179Z,15.80
2018-10-03T09:42:41.151Z,18.40
2018-10-03T09:43:41.183Z,18.20
2018-10-03T09:44:41.128Z,15.70
2018-10-03T09:45:41.046Z,21.80
2018-10-03T09:46:41.007Z,19.50
2018-10-03T09:47:40.961Z,16.50
2018-10-03T09:48:40.927Z,17.80
2018-10-03T09:49:40.892Z,22.20
2018-10-03T09:50:40.847Z,15.20
2018-10-03T09:51:40.818Z,14.30
2018-10-03T09:52:40.779Z,19.30
2018-10-03T09:53:40.744Z,18.80
2018-10-03T09:54:40.722Z,16.40
2018-10-03T09:55:40.670Z,23.80
2018-10-03T09:56:40.632Z,23.30
2018-10-03T09:57:40.598Z,18.40
2018-10-03T09:58:40.563Z,16.70
2018-10-03T09:59:40.521Z,15.10
2018-10-03T10:00:40.528Z,24.10
2018-10-03T10:01:40.453Z,16.50
2018-10-03T10:02:40.411Z,18.50
2018-10-03T10:03:40.381Z,16.40
2018-10-03T10:04:40.346Z,17.30
2018-10-03T10:05:40.306Z,13.30
2018-10-03T10:06:40.278Z,16.10
2018-10-03T10:22:56.577Z,12.00
2018-10-03T10:23:56.504Z,16.30
2018-10-03T10:24:56.460Z,16.40
2018-10-03T10:25:56.424Z,17.60
2018-10-03T10:26:56.382Z,15.50
2018-10-03T10:27:56.352Z,13.60
2018-10-03T10:28:56.301Z,15.10
2018-10-03T10:29:56.268Z,16.20
2018-10-03T10:30:56.224Z,11.50
2018-10-03T10:31:56.251Z,14.70
2018-10-03T10:32:56.299Z,18.50
2018-10-03T10:33:56.120Z,17.20
2018-10-03T10:34:56.077Z,15.50
2018-10-03T10:35:56.049Z,16.60
2018-10-03T10:36:55.999Z,16.10
2018-10-03T10:37:56.011Z,11.60
2018-10-03T10:38:55.927Z,19.10
2018-10-03T10:39:55.890Z,14.00
2018-10-03T10:40:55.881Z,17.70
2018-10-03T10:41:55.819Z,14.40
2018-10-03T10:42:55.786Z,13.10
2018-10-03T10:43:55.745Z,17.30
2018-10-03T10:44:55.713Z,14.20
2018-10-03T10:45:55.673Z,16.90
2018-10-03T10:46:55.640Z,19.30
2018-10-03T10:47:55.604Z,18.40
2018-10-03T10:48:55.561Z,14.90
2018-10-03T10:49:55.530Z,15.90
2018-10-03T10:50:55.490Z,17.40
2018-10-03T10:51:55.554Z,16.50
2018-10-03T10:52:55.423Z,14.70
2018-10-03T10:53:55.387Z,15.90
2018-10-03T10:54:55.346Z,13.00
2018-10-03T10:55:55.320Z,16.60
2018-10-03T10:56:55.274Z,16.90
2018-10-03T10:57:55.240Z,15.80
2018-10-03T10:58:55.205Z,23.50
2018-10-03T10:59:55.170Z,15.90
2018-10-03T11:00:55.135Z,17.50
2018-10-03T11:01:55.097Z,12.20
2018-10-03T11:02:55.058Z,15.70
2018-10-03T11:03:55.019Z,18.50
2018-10-03T11:04:54.993Z,16.80
2018-10-03T11:05:54.952Z,15.30
2018-10-03T11:06:54.915Z,13.80
2018-10-03T11:07:54.882Z,16.10
2018-10-03T11:08:54.850Z,16.20
2018-10-03T11:09:54.816Z,21.30
2018-10-03T11:10:54.776Z,17.50
2018-10-03T11:11:54.732Z,15.40
2018-10-03T11:12:54.714Z,13.90
2018-10-03T11:13:54.666Z,16.30
2018-10-03T11:14:54.626Z,20.40
2018-10-03T11:15:54.588Z,18.50
2018-10-03T11:16:54.580Z,16.40
2018-10-03T11:17:54.521Z,13.30
2018-10-03T11:18:54.484Z,9.90
2018-10-03T11:19:54.451Z,15.60
2018-10-03T11:20:54.407Z,14.50
2018-10-03T11:21:54.378Z,12.80
2018-10-03T11:22:54.339Z,14.40
2018-10-03T11:23:54.429Z,19.90
2018-10-03T11:24:54.421Z,16.00
2018-10-03T11:25:54.243Z,28.60
2018-10-03T11:26:54.204Z,18.30
2018-10-03T11:27:54.167Z,11.80
2018-10-03T11:28:54.121Z,10.10
2018-10-03T11:29:54.090Z,20.30
2018-10-03T11:30:54.054Z,14.80
2018-10-03T11:31:54.022Z,18.10
2018-10-03T11:32:53.979Z,15.80
2018-10-03T11:33:53.944Z,15.30
2018-10-03T11:34:53.908Z,16.50
2018-10-03T11:35:53.870Z,21.80
2018-10-03T11:36:53.842Z,14.00
2018-10-03T11:37:53.803Z,12.40
2018-10-03T11:38:53.769Z,15.30
2018-10-03T11:39:53.733Z,20.40
2018-10-03T11:40:53.689Z,14.80
2018-10-03T11:41:53.659Z,20.40
2018-10-03T11:42:53.622Z,16.50
2018-10-03T11:43:53.603Z,15.90
2018-10-03T11:44:53.552Z,16.50
2018-10-03T11:45:53.514Z,16.90
2018-10-03T11:46:53.478Z,18.90
2018-10-03T11:47:53.442Z,17.40
2018-10-03T11:48:53.416Z,16.60
2018-10-03T11:49:53.373Z,15.90
2018-10-03T11:50:53.334Z,13.20
2018-10-03T11:51:53.301Z,16.20
2018-10-03T11:52:53.257Z,15.80
2018-10-03T11:53:53.225Z,22.30
2018-10-03T11:54:53.189Z,17.80
2018-10-03T11:55:53.154Z,17.70
2018-10-03T11:56:53.152Z,21.50
2018-10-03T11:57:53.082Z,15.50
2018-10-03T11:58:53.049Z,17.60
2018-10-03T11:59:53.026Z,13.70
2018-10-03T12:00:52.972Z,13.90
2018-10-03T12:01:52.937Z,15.10
2018-10-03T12:02:53.028Z,14.10
2018-10-03T12:03:52.870Z,13.10
2018-10-03T12:04:52.828Z,13.90
2018-10-03T12:05:52.797Z,17.80
2018-10-03T12:06:52.757Z,16.00
2018-10-03T12:07:52.727Z,11.50
2018-10-03T12:08:52.689Z,12.40
2018-10-03T12:09:52.652Z,21.50
2018-10-03T12:10:52.616Z,15.60
2018-10-03T12:11:52.582Z,14.20
2018-10-03T12:12:52.541Z,15.30
2018-10-03T12:13:52.590Z,13.80
2018-10-03T12:14:52.469Z,16.60
2018-10-03T12:15:52.435Z,14.90
2018-10-03T12:16:52.403Z,15.90
2018-10-03T12:17:52.365Z,18.20
2018-10-03T12:18:52.340Z,15.90
2018-10-03T12:19:52.291Z,14.80
2018-10-03T12:20:52.260Z,16.80
2018-10-03T12:21:52.222Z,11.40
2018-10-03T12:22:52.212Z,16.80
2018-10-03T12:23:52.153Z,15.50
2018-10-03T12:24:52.118Z,14.40
2018-10-03T12:25:52.080Z,16.10
2018-10-03T12:26:52.041Z,16.50
2018-10-03T12:27:52.005Z,13.60
2018-10-03T12:28:51.974Z,12.30
2018-10-03T12:29:51.942Z,13.90
2018-10-03T12:30:51.907Z,13.70
2018-10-03T12:31:51.880Z,17.40
2018-10-03T12:32:51.828Z,18.20
2018-10-03T12:33:51.838Z,16.80
2018-10-03T12:34:51.776Z,15.70
2018-10-03T12:35:51.727Z,13.60
2018-10-03T12:36:51.690Z,15.80
2018-10-03T12:37:51.665Z,12.90
2018-10-03T12:38:51.614Z,15.40
2018-10-03T12:39:51.578Z,14.70
2018-10-03T12:40:51.548Z,17.70
2018-10-03T12:41:51.510Z,18.80
2018-10-03T12:42:51.475Z,18.30
2018-10-03T12:43:51.443Z,17.30
2018-10-03T12:44:51.451Z,13.10
2018-10-03T12:45:51.376Z,15.50
2018-10-03T12:46:51.334Z,14.20
2018-10-03T12:47:51.295Z,14.90
2018-10-03T12:48:51.266Z,13.20
2018-10-03T12:49:51.231Z,13.60
2018-10-03T12:50:51.193Z,21.00
2018-10-03T12:51:51.151Z,13.60
2018-10-03T12:52:51.128Z,14.60
2018-10-03T12:53:51.087Z,14.90
2018-10-03T12:54:51.142Z,13.80
2018-10-03T12:55:51.018Z,14.00
2018-10-03T12:56:50.976Z,12.60
2018-10-03T12:57:50.944Z,16.40
2018-10-03T12:58:50.908Z,12.60
2018-10-03T12:59:50.879Z,11.00
2018-10-03T13:00:50.841Z,14.00
2018-10-03T13:01:50.806Z,15.10
2018-10-03T13:02:50.768Z,16.30
2018-10-03T13:03:50.734Z,12.70
2018-10-03T13:04:50.704Z,12.30
2018-10-03T13:05:50.661Z,14.00
2018-10-03T13:06:50.625Z,10.90
2018-10-03T13:07:50.596Z,16.10
2018-10-03T13:08:50.550Z,17.70
2018-10-03T13:09:50.519Z,13.10
2018-10-03T13:10:50.487Z,15.10
2018-10-03T13:11:50.445Z,16.00
2018-10-03T13:12:50.419Z,16.00
2018-10-03T13:13:50.376Z,12.40
2018-10-03T13:14:50.350Z,17.90
2018-10-03T13:15:50.309Z,14.80
2018-10-03T13:16:50.267Z,14.50
2018-10-03T13:17:50.232Z,14.90
2018-10-03T13:18:50.196Z,14.30
2018-10-03T13:19:50.171Z,14.00
2018-10-03T13:20:50.128Z,11.80
2018-10-03T13:21:50.098Z,15.80
2018-10-03T13:22:50.058Z,12.30
2018-10-03T13:23:50.020Z,15.10